sensor_id;sensor_type;location;lat;lon;timestamp;P1;durP1;ratioP1;P2;durP2;ratioP2
11817;SDS011;5966;52.402;5.322;2022-12-29T00:00:05;2.40;;;2.23;;
11817;SDS011;5966;52.402;5.322;2022-12-29T00:02:34;2.27;;;1.83;;
11817;SDS011;5966;52.402;5.322;2022-12-29T00:05:03;1.97;;;1.87;;
11817;SDS011;5966;52.402;5.322;2022-12-29T00:07:31;2.30;;;2.10;;
11817;SDS011;5966;52.402;5.322;2022-12-29T00:09:59;1.73;;;1.63;;
11817;SDS011;5966;52.402;5.322;2022-12-29T00:12:28;1.90;;;1.80;;
11817;SDS011;5966;52.402;5.322;2022-12-29T00:15:16;1.83;;;1.70;;
11817;SDS011;5966;52.402;5.322;2022-12-29T00:18:01;2.20;;;2.00;;
11817;SDS011;5966;52.402;5.322;2022-12-29T00:20:29;2.60;;;1.77;;
11817;SDS011;5966;52.402;5.322;2022-12-29T00:23:18;1.97;;;1.77;;
11817;SDS011;5966;52.402;5.322;2022-12-29T00:26:08;2.03;;;1.90;;
11817;SDS011;5966;52.402;5.322;2022-12-29T00:28:59;1.90;;;1.70;;
11817;SDS011;5966;52.402;5.322;2022-12-29T00:31:45;2.47;;;1.87;;
11817;SDS011;5966;52.402;5.322;2022-12-29T00:34:31;1.80;;;1.70;;
11817;SDS011;5966;52.402;5.322;2022-12-29T00:37:16;1.70;;;1.60;;
11817;SDS011;5966;52.402;5.322;2022-12-29T00:40:05;2.63;;;1.80;;
11817;SDS011;5966;52.402;5.322;2022-12-29T00:42:50;1.77;;;1.60;;
11817;SDS011;5966;52.402;5.322;2022-12-29T00:45:37;3.90;;;1.93;;
11817;SDS011;5966;52.402;5.322;2022-12-29T00:48:07;2.47;;;1.43;;
11817;SDS011;5966;52.402;5.322;2022-12-29T00:50:35;2.70;;;1.90;;
11817;SDS011;5966;52.402;5.322;2022-12-29T00:53:02;1.97;;;1.43;;
11817;SDS011;5966;52.402;5.322;2022-12-29T00:55:30;1.70;;;1.53;;
11817;SDS011;5966;52.402;5.322;2022-12-29T00:57:58;1.63;;;1.30;;
11817;SDS011;5966;52.402;5.322;2022-12-29T01:00:26;1.47;;;1.30;;
11817;SDS011;5966;52.402;5.322;2022-12-29T01:02:55;1.47;;;1.23;;
11817;SDS011;5966;52.402;5.322;2022-12-29T01:05:23;2.70;;;1.50;;
11817;SDS011;5966;52.402;5.322;2022-12-29T01:07:51;1.30;;;1.20;;
11817;SDS011;5966;52.402;5.322;2022-12-29T01:10:19;1.47;;;1.27;;
11817;SDS011;5966;52.402;5.322;2022-12-29T01:12:46;1.73;;;1.30;;
11817;SDS011;5966;52.402;5.322;2022-12-29T01:15:15;1.20;;;1.03;;
11817;SDS011;5966;52.402;5.322;2022-12-29T01:17:43;1.53;;;1.43;;
11817;SDS011;5966;52.402;5.322;2022-12-29T01:20:13;1.70;;;1.10;;
11817;SDS011;5966;52.402;5.322;2022-12-29T01:22:41;1.27;;;1.10;;
11817;SDS011;5966;52.402;5.322;2022-12-29T01:25:11;2.27;;;1.17;;
11817;SDS011;5966;52.402;5.322;2022-12-29T01:27:39;1.10;;;1.10;;
11817;SDS011;5966;52.402;5.322;2022-12-29T01:30:07;1.20;;;1.10;;
11817;SDS011;5966;52.402;5.322;2022-12-29T01:32:36;2.27;;;1.17;;
11817;SDS011;5966;52.402;5.322;2022-12-29T01:35:04;2.23;;;1.30;;
11817;SDS011;5966;52.402;5.322;2022-12-29T01:37:34;1.20;;;1.10;;
11817;SDS011;5966;52.402;5.322;2022-12-29T01:40:02;1.93;;;1.23;;
11817;SDS011;5966;52.402;5.322;2022-12-29T01:42:30;1.00;;;1.00;;
11817;SDS011;5966;52.402;5.322;2022-12-29T01:44:58;1.97;;;1.17;;
11817;SDS011;5966;52.402;5.322;2022-12-29T01:47:30;1.83;;;1.20;;
11817;SDS011;5966;52.402;5.322;2022-12-29T01:50:03;1.60;;;1.07;;
11817;SDS011;5966;52.402;5.322;2022-12-29T01:52:38;1.53;;;1.10;;
11817;SDS011;5966;52.402;5.322;2022-12-29T01:55:12;2.60;;;1.10;;
11817;SDS011;5966;52.402;5.322;2022-12-29T01:57:43;1.27;;;1.17;;
11817;SDS011;5966;52.402;5.322;2022-12-29T02:00:15;0.70;;;0.70;;
11817;SDS011;5966;52.402;5.322;2022-12-29T02:02:46;1.90;;;0.80;;
11817;SDS011;5966;52.402;5.322;2022-12-29T02:05:20;0.97;;;0.90;;
11817;SDS011;5966;52.402;5.322;2022-12-29T02:07:53;1.20;;;0.80;;
11817;SDS011;5966;52.402;5.322;2022-12-29T02:10:22;0.97;;;0.93;;
11817;SDS011;5966;52.402;5.322;2022-12-29T02:12:52;2.00;;;1.03;;
11817;SDS011;5966;52.402;5.322;2022-12-29T02:15:21;3.73;;;0.90;;
11817;SDS011;5966;52.402;5.322;2022-12-29T02:18:12;1.23;;;0.97;;
11817;SDS011;5966;52.402;5.322;2022-12-29T02:24:09;1.93;;;0.90;;
11817;SDS011;5966;52.402;5.322;2022-12-29T02:27:01;1.23;;;1.00;;
11817;SDS011;5966;52.402;5.322;2022-12-29T02:29:54;0.97;;;0.80;;
11817;SDS011;5966;52.402;5.322;2022-12-29T02:32:34;1.03;;;0.80;;
11817;SDS011;5966;52.402;5.322;2022-12-29T02:35:07;1.97;;;0.97;;
11817;SDS011;5966;52.402;5.322;2022-12-29T02:37:42;1.40;;;0.70;;
11817;SDS011;5966;52.402;5.322;2022-12-29T02:40:19;1.40;;;0.73;;
11817;SDS011;5966;52.402;5.322;2022-12-29T02:42:53;2.40;;;1.00;;
11817;SDS011;5966;52.402;5.322;2022-12-29T02:45:30;2.17;;;1.03;;
11817;SDS011;5966;52.402;5.322;2022-12-29T02:48:06;1.10;;;0.83;;
11817;SDS011;5966;52.402;5.322;2022-12-29T02:50:43;1.73;;;0.93;;
11817;SDS011;5966;52.402;5.322;2022-12-29T02:53:18;1.57;;;1.00;;
11817;SDS011;5966;52.402;5.322;2022-12-29T02:56:08;1.67;;;0.90;;
11817;SDS011;5966;52.402;5.322;2022-12-29T02:58:35;2.20;;;1.07;;
11817;SDS011;5966;52.402;5.322;2022-12-29T03:01:19;2.17;;;0.90;;
11817;SDS011;5966;52.402;5.322;2022-12-29T03:06:51;3.03;;;1.13;;
11817;SDS011;5966;52.402;5.322;2022-12-29T03:09:26;2.60;;;0.67;;
11817;SDS011;5966;52.402;5.322;2022-12-29T03:12:03;1.93;;;0.90;;
11817;SDS011;5966;52.402;5.322;2022-12-29T03:14:44;2.13;;;0.60;;
11817;SDS011;5966;52.402;5.322;2022-12-29T03:17:39;1.17;;;0.60;;
11817;SDS011;5966;52.402;5.322;2022-12-29T03:20:17;5.00;;;0.70;;
11817;SDS011;5966;52.402;5.322;2022-12-29T03:22:49;1.13;;;0.80;;
11817;SDS011;5966;52.402;5.322;2022-12-29T03:25:21;3.70;;;0.87;;
11817;SDS011;5966;52.402;5.322;2022-12-29T03:27:54;2.00;;;0.80;;
11817;SDS011;5966;52.402;5.322;2022-12-29T03:30:25;3.50;;;1.20;;
11817;SDS011;5966;52.402;5.322;2022-12-29T03:32:55;2.23;;;1.10;;
11817;SDS011;5966;52.402;5.322;2022-12-29T03:35:28;3.23;;;1.30;;
11817;SDS011;5966;52.402;5.322;2022-12-29T03:38:02;2.33;;;1.00;;
11817;SDS011;5966;52.402;5.322;2022-12-29T03:40:34;4.37;;;1.23;;
11817;SDS011;5966;52.402;5.322;2022-12-29T03:43:03;2.97;;;1.17;;
11817;SDS011;5966;52.402;5.322;2022-12-29T03:45:32;1.80;;;1.00;;
11817;SDS011;5966;52.402;5.322;2022-12-29T03:48:00;2.57;;;1.20;;
11817;SDS011;5966;52.402;5.322;2022-12-29T03:50:29;5.97;;;1.57;;
11817;SDS011;5966;52.402;5.322;2022-12-29T03:52:57;3.63;;;1.20;;
11817;SDS011;5966;52.402;5.322;2022-12-29T03:55:25;5.13;;;1.37;;
11817;SDS011;5966;52.402;5.322;2022-12-29T03:57:53;8.40;;;1.60;;
11817;SDS011;5966;52.402;5.322;2022-12-29T04:00:21;4.93;;;1.27;;
11817;SDS011;5966;52.402;5.322;2022-12-29T04:02:49;7.87;;;1.67;;
11817;SDS011;5966;52.402;5.322;2022-12-29T04:05:17;4.30;;;1.43;;
11817;SDS011;5966;52.402;5.322;2022-12-29T04:07:46;5.23;;;1.50;;
11817;SDS011;5966;52.402;5.322;2022-12-29T04:10:15;6.33;;;1.53;;
11817;SDS011;5966;52.402;5.322;2022-12-29T04:12:43;4.70;;;1.20;;
11817;SDS011;5966;52.402;5.322;2022-12-29T04:15:12;5.90;;;1.93;;
11817;SDS011;5966;52.402;5.322;2022-12-29T04:17:40;6.57;;;1.40;;
11817;SDS011;5966;52.402;5.322;2022-12-29T04:20:08;4.77;;;1.73;;
11817;SDS011;5966;52.402;5.322;2022-12-29T04:23:00;7.27;;;1.70;;
11817;SDS011;5966;52.402;5.322;2022-12-29T04:25:28;6.63;;;1.50;;
11817;SDS011;5966;52.402;5.322;2022-12-29T04:27:56;7.30;;;2.57;;
11817;SDS011;5966;52.402;5.322;2022-12-29T04:30:24;4.80;;;1.20;;
11817;SDS011;5966;52.402;5.322;2022-12-29T04:32:52;7.27;;;1.40;;
11817;SDS011;5966;52.402;5.322;2022-12-29T04:35:20;3.57;;;1.27;;
11817;SDS011;5966;52.402;5.322;2022-12-29T04:37:48;5.20;;;1.27;;
11817;SDS011;5966;52.402;5.322;2022-12-29T04:40:17;5.27;;;1.00;;
11817;SDS011;5966;52.402;5.322;2022-12-29T04:42:45;2.93;;;1.03;;
11817;SDS011;5966;52.402;5.322;2022-12-29T04:45:13;4.07;;;1.33;;
11817;SDS011;5966;52.402;5.322;2022-12-29T04:47:42;4.30;;;1.20;;
11817;SDS011;5966;52.402;5.322;2022-12-29T04:50:10;6.13;;;1.60;;
11817;SDS011;5966;52.402;5.322;2022-12-29T04:52:38;6.17;;;1.43;;
11817;SDS011;5966;52.402;5.322;2022-12-29T04:55:06;4.83;;;1.20;;
11817;SDS011;5966;52.402;5.322;2022-12-29T04:57:36;6.23;;;1.43;;
11817;SDS011;5966;52.402;5.322;2022-12-29T05:00:04;1.97;;;0.93;;
11817;SDS011;5966;52.402;5.322;2022-12-29T05:02:34;4.73;;;1.30;;
11817;SDS011;5966;52.402;5.322;2022-12-29T05:05:03;3.67;;;1.20;;
11817;SDS011;5966;52.402;5.322;2022-12-29T05:07:32;4.73;;;1.27;;
11817;SDS011;5966;52.402;5.322;2022-12-29T05:10:00;6.00;;;1.53;;
11817;SDS011;5966;52.402;5.322;2022-12-29T05:12:29;8.80;;;1.80;;
11817;SDS011;5966;52.402;5.322;2022-12-29T05:14:59;6.73;;;1.90;;
11817;SDS011;5966;52.402;5.322;2022-12-29T05:17:28;6.00;;;1.90;;
11817;SDS011;5966;52.402;5.322;2022-12-29T05:19:56;10.50;;;2.23;;
11817;SDS011;5966;52.402;5.322;2022-12-29T05:22:24;7.83;;;1.87;;
11817;SDS011;5966;52.402;5.322;2022-12-29T05:24:52;7.50;;;1.90;;
11817;SDS011;5966;52.402;5.322;2022-12-29T05:27:20;6.27;;;1.77;;
11817;SDS011;5966;52.402;5.322;2022-12-29T05:29:48;5.83;;;1.80;;
11817;SDS011;5966;52.402;5.322;2022-12-29T05:32:17;6.63;;;1.63;;
11817;SDS011;5966;52.402;5.322;2022-12-29T05:34:45;6.13;;;1.80;;
11817;SDS011;5966;52.402;5.322;2022-12-29T05:37:13;5.47;;;1.50;;
11817;SDS011;5966;52.402;5.322;2022-12-29T05:39:43;4.67;;;1.50;;
11817;SDS011;5966;52.402;5.322;2022-12-29T05:42:11;7.47;;;1.70;;
11817;SDS011;5966;52.402;5.322;2022-12-29T05:44:39;4.30;;;1.47;;
11817;SDS011;5966;52.402;5.322;2022-12-29T05:47:07;10.10;;;1.83;;
11817;SDS011;5966;52.402;5.322;2022-12-29T05:49:36;6.87;;;1.87;;
11817;SDS011;5966;52.402;5.322;2022-12-29T05:52:04;4.40;;;1.47;;
11817;SDS011;5966;52.402;5.322;2022-12-29T05:54:32;6.57;;;1.47;;
11817;SDS011;5966;52.402;5.322;2022-12-29T05:57:00;8.07;;;1.90;;
11817;SDS011;5966;52.402;5.322;2022-12-29T05:59:28;7.30;;;1.70;;
11817;SDS011;5966;52.402;5.322;2022-12-29T06:01:56;5.77;;;1.37;;
11817;SDS011;5966;52.402;5.322;2022-12-29T06:04:24;6.10;;;1.70;;
11817;SDS011;5966;52.402;5.322;2022-12-29T06:06:53;6.03;;;1.90;;
11817;SDS011;5966;52.402;5.322;2022-12-29T06:09:21;4.47;;;1.63;;
11817;SDS011;5966;52.402;5.322;2022-12-29T06:11:49;7.63;;;1.77;;
11817;SDS011;5966;52.402;5.322;2022-12-29T06:14:17;7.47;;;2.10;;
11817;SDS011;5966;52.402;5.322;2022-12-29T06:16:46;7.60;;;2.07;;
11817;SDS011;5966;52.402;5.322;2022-12-29T06:19:14;9.17;;;2.47;;
11817;SDS011;5966;52.402;5.322;2022-12-29T06:21:42;5.17;;;1.80;;
11817;SDS011;5966;52.402;5.322;2022-12-29T06:24:11;6.30;;;2.03;;
11817;SDS011;5966;52.402;5.322;2022-12-29T06:26:39;7.60;;;1.63;;
11817;SDS011;5966;52.402;5.322;2022-12-29T06:29:08;5.07;;;1.90;;
11817;SDS011;5966;52.402;5.322;2022-12-29T06:31:36;8.33;;;2.00;;
11817;SDS011;5966;52.402;5.322;2022-12-29T06:34:04;7.73;;;1.73;;
11817;SDS011;5966;52.402;5.322;2022-12-29T06:36:34;6.57;;;1.90;;
11817;SDS011;5966;52.402;5.322;2022-12-29T06:39:02;9.73;;;4.50;;
11817;SDS011;5966;52.402;5.322;2022-12-29T06:41:31;9.13;;;2.63;;
11817;SDS011;5966;52.402;5.322;2022-12-29T06:43:59;9.57;;;2.00;;
11817;SDS011;5966;52.402;5.322;2022-12-29T06:46:27;7.40;;;2.17;;
11817;SDS011;5966;52.402;5.322;2022-12-29T06:48:55;9.30;;;1.83;;
11817;SDS011;5966;52.402;5.322;2022-12-29T06:51:23;6.90;;;1.60;;
11817;SDS011;5966;52.402;5.322;2022-12-29T06:53:51;9.53;;;1.97;;
11817;SDS011;5966;52.402;5.322;2022-12-29T06:56:19;9.80;;;2.17;;
11817;SDS011;5966;52.402;5.322;2022-12-29T06:58:48;8.03;;;2.10;;
11817;SDS011;5966;52.402;5.322;2022-12-29T07:01:16;9.67;;;1.90;;
11817;SDS011;5966;52.402;5.322;2022-12-29T07:03:44;8.63;;;1.90;;
11817;SDS011;5966;52.402;5.322;2022-12-29T07:06:12;7.60;;;2.20;;
11817;SDS011;5966;52.402;5.322;2022-12-29T07:08:40;7.60;;;1.80;;
11817;SDS011;5966;52.402;5.322;2022-12-29T07:11:08;10.23;;;2.03;;
11817;SDS011;5966;52.402;5.322;2022-12-29T07:13:36;9.77;;;2.33;;
11817;SDS011;5966;52.402;5.322;2022-12-29T07:16:06;8.10;;;2.10;;
11817;SDS011;5966;52.402;5.322;2022-12-29T07:18:35;11.70;;;2.50;;
11817;SDS011;5966;52.402;5.322;2022-12-29T07:21:03;9.03;;;2.07;;
11817;SDS011;5966;52.402;5.322;2022-12-29T07:23:31;8.33;;;2.13;;
11817;SDS011;5966;52.402;5.322;2022-12-29T07:25:59;13.40;;;2.33;;
11817;SDS011;5966;52.402;5.322;2022-12-29T07:28:28;10.07;;;2.40;;
11817;SDS011;5966;52.402;5.322;2022-12-29T07:30:56;9.87;;;2.50;;
11817;SDS011;5966;52.402;5.322;2022-12-29T07:33:27;15.67;;;3.00;;
11817;SDS011;5966;52.402;5.322;2022-12-29T07:35:56;11.47;;;2.37;;
11817;SDS011;5966;52.402;5.322;2022-12-29T07:38:24;10.17;;;2.37;;
11817;SDS011;5966;52.402;5.322;2022-12-29T07:40:55;12.43;;;2.40;;
11817;SDS011;5966;52.402;5.322;2022-12-29T07:43:24;11.23;;;2.50;;
11817;SDS011;5966;52.402;5.322;2022-12-29T07:45:52;8.20;;;2.07;;
11817;SDS011;5966;52.402;5.322;2022-12-29T07:48:20;13.87;;;2.83;;
11817;SDS011;5966;52.402;5.322;2022-12-29T07:50:49;11.07;;;2.20;;
11817;SDS011;5966;52.402;5.322;2022-12-29T07:53:18;10.53;;;2.37;;
11817;SDS011;5966;52.402;5.322;2022-12-29T07:55:46;7.93;;;1.90;;
11817;SDS011;5966;52.402;5.322;2022-12-29T07:58:14;8.80;;;2.23;;
11817;SDS011;5966;52.402;5.322;2022-12-29T08:00:41;5.37;;;2.13;;
11817;SDS011;5966;52.402;5.322;2022-12-29T08:03:09;9.53;;;2.20;;
11817;SDS011;5966;52.402;5.322;2022-12-29T08:05:37;8.37;;;1.90;;
11817;SDS011;5966;52.402;5.322;2022-12-29T08:08:06;7.80;;;2.23;;
11817;SDS011;5966;52.402;5.322;2022-12-29T08:10:34;12.27;;;2.10;;
11817;SDS011;5966;52.402;5.322;2022-12-29T08:13:02;9.10;;;1.80;;
11817;SDS011;5966;52.402;5.322;2022-12-29T08:15:30;7.73;;;2.00;;
11817;SDS011;5966;52.402;5.322;2022-12-29T08:17:59;10.83;;;2.33;;
11817;SDS011;5966;52.402;5.322;2022-12-29T08:20:27;8.40;;;1.90;;
11817;SDS011;5966;52.402;5.322;2022-12-29T08:22:54;5.27;;;1.70;;
11817;SDS011;5966;52.402;5.322;2022-12-29T08:25:24;10.60;;;2.50;;
11817;SDS011;5966;52.402;5.322;2022-12-29T08:27:52;7.70;;;2.07;;
11817;SDS011;5966;52.402;5.322;2022-12-29T08:30:20;7.07;;;1.83;;
11817;SDS011;5966;52.402;5.322;2022-12-29T08:32:47;10.73;;;2.37;;
11817;SDS011;5966;52.402;5.322;2022-12-29T08:35:15;11.03;;;2.40;;
11817;SDS011;5966;52.402;5.322;2022-12-29T08:37:43;7.53;;;1.97;;
11817;SDS011;5966;52.402;5.322;2022-12-29T08:40:11;10.23;;;2.60;;
11817;SDS011;5966;52.402;5.322;2022-12-29T08:42:41;7.37;;;1.93;;
11817;SDS011;5966;52.402;5.322;2022-12-29T08:45:09;13.83;;;2.67;;
11817;SDS011;5966;52.402;5.322;2022-12-29T08:47:37;12.93;;;2.50;;
11817;SDS011;5966;52.402;5.322;2022-12-29T08:50:06;7.57;;;2.03;;
11817;SDS011;5966;52.402;5.322;2022-12-29T08:52:34;8.97;;;2.10;;
11817;SDS011;5966;52.402;5.322;2022-12-29T08:55:02;7.57;;;2.23;;
11817;SDS011;5966;52.402;5.322;2022-12-29T08:57:30;12.20;;;2.40;;
11817;SDS011;5966;52.402;5.322;2022-12-29T08:59:59;7.83;;;1.90;;
11817;SDS011;5966;52.402;5.322;2022-12-29T09:02:28;8.40;;;1.83;;
11817;SDS011;5966;52.402;5.322;2022-12-29T09:04:56;10.27;;;2.23;;
11817;SDS011;5966;52.402;5.322;2022-12-29T09:07:25;7.97;;;2.23;;
11817;SDS011;5966;52.402;5.322;2022-12-29T09:09:53;9.67;;;2.30;;
11817;SDS011;5966;52.402;5.322;2022-12-29T09:12:21;9.97;;;2.60;;
11817;SDS011;5966;52.402;5.322;2022-12-29T09:14:49;11.33;;;2.47;;
11817;SDS011;5966;52.402;5.322;2022-12-29T09:17:18;10.40;;;2.30;;
11817;SDS011;5966;52.402;5.322;2022-12-29T09:20:04;9.20;;;2.33;;
11817;SDS011;5966;52.402;5.322;2022-12-29T09:22:32;7.57;;;2.33;;
11817;SDS011;5966;52.402;5.322;2022-12-29T09:25:00;10.37;;;2.23;;
11817;SDS011;5966;52.402;5.322;2022-12-29T09:27:28;7.63;;;2.13;;
11817;SDS011;5966;52.402;5.322;2022-12-29T09:29:57;10.20;;;2.40;;
11817;SDS011;5966;52.402;5.322;2022-12-29T09:32:26;7.80;;;2.10;;
11817;SDS011;5966;52.402;5.322;2022-12-29T09:34:59;8.00;;;2.60;;
11817;SDS011;5966;52.402;5.322;2022-12-29T09:37:27;5.60;;;1.97;;
11817;SDS011;5966;52.402;5.322;2022-12-29T09:39:55;8.53;;;2.20;;
11817;SDS011;5966;52.402;5.322;2022-12-29T09:42:23;6.10;;;1.53;;
11817;SDS011;5966;52.402;5.322;2022-12-29T09:45:00;9.43;;;2.23;;
11817;SDS011;5966;52.402;5.322;2022-12-29T09:47:39;7.83;;;1.93;;
11817;SDS011;5966;52.402;5.322;2022-12-29T09:50:11;6.37;;;1.90;;
11817;SDS011;5966;52.402;5.322;2022-12-29T09:52:46;6.93;;;1.63;;
11817;SDS011;5966;52.402;5.322;2022-12-29T09:55:19;4.67;;;1.33;;
11817;SDS011;5966;52.402;5.322;2022-12-29T09:57:52;6.37;;;1.33;;
11817;SDS011;5966;52.402;5.322;2022-12-29T10:00:36;4.27;;;1.67;;
11817;SDS011;5966;52.402;5.322;2022-12-29T10:03:09;8.43;;;2.50;;
11817;SDS011;5966;52.402;5.322;2022-12-29T10:05:44;8.80;;;2.50;;
11817;SDS011;5966;52.402;5.322;2022-12-29T10:08:18;6.20;;;2.23;;
11817;SDS011;5966;52.402;5.322;2022-12-29T10:10:59;7.43;;;1.83;;
11817;SDS011;5966;52.402;5.322;2022-12-29T10:13:39;10.80;;;1.93;;
11817;SDS011;5966;52.402;5.322;2022-12-29T10:16:23;8.63;;;2.33;;
11817;SDS011;5966;52.402;5.322;2022-12-29T10:19:09;8.37;;;2.00;;
11817;SDS011;5966;52.402;5.322;2022-12-29T10:22:00;7.37;;;1.93;;
11817;SDS011;5966;52.402;5.322;2022-12-29T10:24:39;6.97;;;1.93;;
11817;SDS011;5966;52.402;5.322;2022-12-29T10:27:09;6.63;;;2.07;;
11817;SDS011;5966;52.402;5.322;2022-12-29T10:29:39;8.30;;;2.70;;
11817;SDS011;5966;52.402;5.322;2022-12-29T10:32:14;7.27;;;1.97;;
11817;SDS011;5966;52.402;5.322;2022-12-29T10:34:52;10.23;;;2.30;;
11817;SDS011;5966;52.402;5.322;2022-12-29T10:37:27;11.80;;;2.80;;
11817;SDS011;5966;52.402;5.322;2022-12-29T10:40:03;9.80;;;2.90;;
11817;SDS011;5966;52.402;5.322;2022-12-29T10:42:45;10.00;;;3.07;;
11817;SDS011;5966;52.402;5.322;2022-12-29T10:45:16;10.57;;;3.57;;
11817;SDS011;5966;52.402;5.322;2022-12-29T10:47:49;11.73;;;3.10;;
11817;SDS011;5966;52.402;5.322;2022-12-29T10:50:25;9.20;;;2.47;;
11817;SDS011;5966;52.402;5.322;2022-12-29T10:52:55;11.23;;;2.67;;
11817;SDS011;5966;52.402;5.322;2022-12-29T10:55:27;12.23;;;3.00;;
11817;SDS011;5966;52.402;5.322;2022-12-29T10:57:59;12.47;;;2.77;;
11817;SDS011;5966;52.402;5.322;2022-12-29T11:00:31;7.93;;;2.67;;
11817;SDS011;5966;52.402;5.322;2022-12-29T11:06:03;13.37;;;2.80;;
11817;SDS011;5966;52.402;5.322;2022-12-29T11:08:36;10.90;;;2.77;;
11817;SDS011;5966;52.402;5.322;2022-12-29T11:11:07;13.23;;;3.23;;
11817;SDS011;5966;52.402;5.322;2022-12-29T11:13:46;10.67;;;2.93;;
11817;SDS011;5966;52.402;5.322;2022-12-29T11:16:16;15.00;;;3.40;;
11817;SDS011;5966;52.402;5.322;2022-12-29T11:18:57;13.70;;;4.20;;
11817;SDS011;5966;52.402;5.322;2022-12-29T11:21:32;12.87;;;3.30;;
11817;SDS011;5966;52.402;5.322;2022-12-29T11:24:18;18.43;;;3.47;;
11817;SDS011;5966;52.402;5.322;2022-12-29T11:26:48;16.13;;;3.47;;
11817;SDS011;5966;52.402;5.322;2022-12-29T11:29:23;11.17;;;2.80;;
11817;SDS011;5966;52.402;5.322;2022-12-29T11:31:53;16.27;;;4.00;;
11817;SDS011;5966;52.402;5.322;2022-12-29T11:34:24;12.47;;;3.57;;
11817;SDS011;5966;52.402;5.322;2022-12-29T11:36:58;17.83;;;4.20;;
11817;SDS011;5966;52.402;5.322;2022-12-29T11:39:29;17.97;;;3.70;;
11817;SDS011;5966;52.402;5.322;2022-12-29T11:42:01;16.50;;;3.30;;
11817;SDS011;5966;52.402;5.322;2022-12-29T11:44:31;15.23;;;3.43;;
11817;SDS011;5966;52.402;5.322;2022-12-29T11:47:03;12.73;;;3.43;;
11817;SDS011;5966;52.402;5.322;2022-12-29T11:49:32;11.30;;;2.90;;
11817;SDS011;5966;52.402;5.322;2022-12-29T11:52:01;14.13;;;3.57;;
11817;SDS011;5966;52.402;5.322;2022-12-29T11:54:31;12.20;;;2.73;;
11817;SDS011;5966;52.402;5.322;2022-12-29T11:57:08;13.73;;;3.00;;
11817;SDS011;5966;52.402;5.322;2022-12-29T11:59:40;15.17;;;3.70;;
11817;SDS011;5966;52.402;5.322;2022-12-29T12:02:13;15.77;;;3.20;;
11817;SDS011;5966;52.402;5.322;2022-12-29T12:05:10;12.57;;;3.13;;
11817;SDS011;5966;52.402;5.322;2022-12-29T12:07:49;11.67;;;2.80;;
11817;SDS011;5966;52.402;5.322;2022-12-29T12:10:23;8.63;;;2.80;;
11817;SDS011;5966;52.402;5.322;2022-12-29T12:13:01;10.30;;;3.63;;
11817;SDS011;5966;52.402;5.322;2022-12-29T12:15:36;11.80;;;3.00;;
11817;SDS011;5966;52.402;5.322;2022-12-29T12:18:14;13.00;;;2.87;;
11817;SDS011;5966;52.402;5.322;2022-12-29T12:20:48;9.57;;;2.43;;
11817;SDS011;5966;52.402;5.322;2022-12-29T12:23:25;12.27;;;2.33;;
11817;SDS011;5966;52.402;5.322;2022-12-29T12:26:00;12.07;;;2.90;;
11817;SDS011;5966;52.402;5.322;2022-12-29T12:28:37;11.07;;;2.63;;
11817;SDS011;5966;52.402;5.322;2022-12-29T12:31:15;8.83;;;2.37;;
11817;SDS011;5966;52.402;5.322;2022-12-29T12:33:50;10.90;;;2.47;;
11817;SDS011;5966;52.402;5.322;2022-12-29T12:36:32;11.07;;;2.70;;
11817;SDS011;5966;52.402;5.322;2022-12-29T12:39:19;10.17;;;2.37;;
11817;SDS011;5966;52.402;5.322;2022-12-29T12:41:57;10.30;;;2.33;;
11817;SDS011;5966;52.402;5.322;2022-12-29T12:44:36;11.30;;;3.03;;
11817;SDS011;5966;52.402;5.322;2022-12-29T12:47:23;9.17;;;2.20;;
11817;SDS011;5966;52.402;5.322;2022-12-29T12:53:15;6.53;;;1.93;;
11817;SDS011;5966;52.402;5.322;2022-12-29T12:55:58;9.23;;;2.43;;
11817;SDS011;5966;52.402;5.322;2022-12-29T12:58:39;10.60;;;2.60;;
11817;SDS011;5966;52.402;5.322;2022-12-29T13:01:18;6.43;;;2.10;;
11817;SDS011;5966;52.402;5.322;2022-12-29T13:04:01;7.87;;;1.97;;
11817;SDS011;5966;52.402;5.322;2022-12-29T13:06:49;6.30;;;1.90;;
11817;SDS011;5966;52.402;5.322;2022-12-29T13:09:27;8.10;;;2.80;;
11817;SDS011;5966;52.402;5.322;2022-12-29T13:12:09;6.97;;;1.50;;
11817;SDS011;5966;52.402;5.322;2022-12-29T13:14:51;6.47;;;1.63;;
11817;SDS011;5966;52.402;5.322;2022-12-29T13:17:28;8.63;;;2.03;;
11817;SDS011;5966;52.402;5.322;2022-12-29T13:20:05;8.17;;;1.80;;
11817;SDS011;5966;52.402;5.322;2022-12-29T13:22:44;8.90;;;2.00;;
11817;SDS011;5966;52.402;5.322;2022-12-29T13:25:20;6.40;;;2.03;;
11817;SDS011;5966;52.402;5.322;2022-12-29T13:27:56;7.33;;;2.10;;
11817;SDS011;5966;52.402;5.322;2022-12-29T13:30:32;8.50;;;1.97;;
11817;SDS011;5966;52.402;5.322;2022-12-29T13:33:05;11.80;;;2.47;;
11817;SDS011;5966;52.402;5.322;2022-12-29T13:35:57;12.47;;;2.40;;
11817;SDS011;5966;52.402;5.322;2022-12-29T13:38:30;9.33;;;2.13;;
11817;SDS011;5966;52.402;5.322;2022-12-29T13:41:04;10.77;;;2.57;;
11817;SDS011;5966;52.402;5.322;2022-12-29T13:43:37;9.37;;;2.13;;
11817;SDS011;5966;52.402;5.322;2022-12-29T13:46:09;11.97;;;2.13;;
11817;SDS011;5966;52.402;5.322;2022-12-29T13:48:40;6.73;;;2.50;;
11817;SDS011;5966;52.402;5.322;2022-12-29T13:51:13;7.57;;;1.67;;
11817;SDS011;5966;52.402;5.322;2022-12-29T13:53:56;8.30;;;2.20;;
11817;SDS011;5966;52.402;5.322;2022-12-29T13:56:31;8.43;;;2.17;;
11817;SDS011;5966;52.402;5.322;2022-12-29T13:59:09;10.17;;;2.53;;
11817;SDS011;5966;52.402;5.322;2022-12-29T14:01:46;5.23;;;1.93;;
11817;SDS011;5966;52.402;5.322;2022-12-29T14:04:21;10.60;;;2.27;;
11817;SDS011;5966;52.402;5.322;2022-12-29T14:07:00;8.20;;;1.87;;
11817;SDS011;5966;52.402;5.322;2022-12-29T14:09:41;7.83;;;2.17;;
11817;SDS011;5966;52.402;5.322;2022-12-29T14:12:22;6.60;;;1.63;;
11817;SDS011;5966;52.402;5.322;2022-12-29T14:15:15;7.93;;;2.33;;
11817;SDS011;5966;52.402;5.322;2022-12-29T14:18:00;9.13;;;1.93;;
11817;SDS011;5966;52.402;5.322;2022-12-29T14:20:32;8.20;;;2.43;;
11817;SDS011;5966;52.402;5.322;2022-12-29T14:23:01;7.73;;;2.10;;
11817;SDS011;5966;52.402;5.322;2022-12-29T14:25:53;7.57;;;2.10;;
11817;SDS011;5966;52.402;5.322;2022-12-29T14:28:27;8.87;;;2.40;;
11817;SDS011;5966;52.402;5.322;2022-12-29T14:30:57;9.87;;;2.43;;
11817;SDS011;5966;52.402;5.322;2022-12-29T14:33:27;7.20;;;1.77;;
11817;SDS011;5966;52.402;5.322;2022-12-29T14:36:05;8.77;;;2.20;;
11817;SDS011;5966;52.402;5.322;2022-12-29T14:38:47;5.87;;;1.90;;
11817;SDS011;5966;52.402;5.322;2022-12-29T14:41:16;8.40;;;2.30;;
11817;SDS011;5966;52.402;5.322;2022-12-29T14:43:52;9.60;;;2.57;;
11817;SDS011;5966;52.402;5.322;2022-12-29T14:46:24;9.07;;;2.60;;
11817;SDS011;5966;52.402;5.322;2022-12-29T14:48:54;10.87;;;2.10;;
11817;SDS011;5966;52.402;5.322;2022-12-29T14:51:29;9.47;;;2.07;;
11817;SDS011;5966;52.402;5.322;2022-12-29T14:54:01;8.67;;;2.23;;
11817;SDS011;5966;52.402;5.322;2022-12-29T14:57:09;12.43;;;2.70;;
11817;SDS011;5966;52.402;5.322;2022-12-29T14:59:43;7.97;;;2.50;;
11817;SDS011;5966;52.402;5.322;2022-12-29T15:02:13;6.80;;;2.17;;
11817;SDS011;5966;52.402;5.322;2022-12-29T15:04:44;5.67;;;2.00;;
11817;SDS011;5966;52.402;5.322;2022-12-29T15:07:13;9.33;;;1.90;;
11817;SDS011;5966;52.402;5.322;2022-12-29T15:09:43;4.90;;;1.63;;
11817;SDS011;5966;52.402;5.322;2022-12-29T15:12:19;8.23;;;1.87;;
11817;SDS011;5966;52.402;5.322;2022-12-29T15:14:54;6.73;;;2.10;;
11817;SDS011;5966;52.402;5.322;2022-12-29T15:17:24;3.83;;;1.60;;
11817;SDS011;5966;52.402;5.322;2022-12-29T15:19:54;4.03;;;1.20;;
11817;SDS011;5966;52.402;5.322;2022-12-29T15:22:23;6.13;;;1.93;;
11817;SDS011;5966;52.402;5.322;2022-12-29T15:24:53;3.17;;;1.20;;
11817;SDS011;5966;52.402;5.322;2022-12-29T15:27:24;6.77;;;1.50;;
11817;SDS011;5966;52.402;5.322;2022-12-29T15:29:56;5.60;;;1.83;;
11817;SDS011;5966;52.402;5.322;2022-12-29T15:32:28;4.73;;;1.53;;
11817;SDS011;5966;52.402;5.322;2022-12-29T15:35:20;8.77;;;1.97;;
11817;SDS011;5966;52.402;5.322;2022-12-29T15:37:54;4.13;;;1.53;;
11817;SDS011;5966;52.402;5.322;2022-12-29T15:40:23;5.10;;;1.73;;
11817;SDS011;5966;52.402;5.322;2022-12-29T15:45:52;7.50;;;1.57;;